sensor_id;sensor_type;location;lat;lon;timestamp;P1;durP1;ratioP1;P2;durP2;ratioP2
59474;SDS011;45288;51.136;16.928;2023-05-27T00:01:48;1010.70;;;943.60;;
59474;SDS011;45288;51.136;16.928;2023-05-27T00:04:14;1014.40;;;946.37;;
59474;SDS011;45288;51.136;16.928;2023-05-27T00:06:40;1005.20;;;938.70;;
59474;SDS011;45288;51.136;16.928;2023-05-27T00:09:12;1003.00;;;936.27;;
59474;SDS011;45288;51.136;16.928;2023-05-27T00:11:42;1001.35;;;935.08;;
59474;SDS011;45288;51.136;16.928;2023-05-27T00:14:12;1024.28;;;953.50;;
59474;SDS011;45288;51.136;16.928;2023-05-27T00:16:38;1030.23;;;957.07;;
59474;SDS011;45288;51.136;16.928;2023-05-27T00:19:04;1028.85;;;955.90;;
59474;SDS011;45288;51.136;16.928;2023-05-27T00:21:30;1019.85;;;947.67;;
59474;SDS011;45288;51.136;16.928;2023-05-27T00:23:56;1023.47;;;951.85;;
59474;SDS011;45288;51.136;16.928;2023-05-27T00:26:25;1020.45;;;948.65;;
59474;SDS011;45288;51.136;16.928;2023-05-27T00:28:52;1018.90;;;946.30;;
59474;SDS011;45288;51.136;16.928;2023-05-27T00:31:18;1010.75;;;941.17;;
59474;SDS011;45288;51.136;16.928;2023-05-27T00:33:45;1017.28;;;944.00;;
59474;SDS011;45288;51.136;16.928;2023-05-27T00:36:11;1018.55;;;945.90;;
59474;SDS011;45288;51.136;16.928;2023-05-27T00:38:37;1014.38;;;942.05;;
59474;SDS011;45288;51.136;16.928;2023-05-27T00:41:03;1009.73;;;938.20;;
59474;SDS011;45288;51.136;16.928;2023-05-27T00:43:29;1013.22;;;943.03;;
59474;SDS011;45288;51.136;16.928;2023-05-27T00:45:58;1010.67;;;941.53;;
59474;SDS011;45288;51.136;16.928;2023-05-27T00:48:24;1011.20;;;936.77;;
59474;SDS011;45288;51.136;16.928;2023-05-27T00:50:50;1005.50;;;928.28;;
59474;SDS011;45288;51.136;16.928;2023-05-27T00:53:16;1005.40;;;931.63;;
59474;SDS011;45288;51.136;16.928;2023-05-27T00:55:42;1002.40;;;929.67;;
59474;SDS011;45288;51.136;16.928;2023-05-27T00:58:08;1011.22;;;932.55;;
59474;SDS011;45288;51.136;16.928;2023-05-27T01:00:35;998.53;;;926.95;;
59474;SDS011;45288;51.136;16.928;2023-05-27T01:03:07;1015.33;;;934.17;;
59474;SDS011;45288;51.136;16.928;2023-05-27T01:05:33;996.90;;;928.65;;
59474;SDS011;45288;51.136;16.928;2023-05-27T01:10:47;973.63;;;908.75;;
59474;SDS011;45288;51.136;16.928;2023-05-27T01:13:59;937.40;;;875.55;;
59474;SDS011;45288;51.136;16.928;2023-05-27T01:16:05;947.28;;;885.25;;
59474;SDS011;45288;51.136;16.928;2023-05-27T01:18:35;956.25;;;893.75;;
59474;SDS011;45288;51.136;16.928;2023-05-27T01:21:03;950.45;;;888.28;;
59474;SDS011;45288;51.136;16.928;2023-05-27T01:23:31;941.83;;;879.25;;
59474;SDS011;45288;51.136;16.928;2023-05-27T01:25:58;946.65;;;883.92;;
59474;SDS011;45288;51.136;16.928;2023-05-27T01:28:24;928.47;;;866.53;;
59474;SDS011;45288;51.136;16.928;2023-05-27T01:30:50;924.70;;;863.67;;
59474;SDS011;45288;51.136;16.928;2023-05-27T01:33:17;925.33;;;863.72;;
59474;SDS011;45288;51.136;16.928;2023-05-27T01:35:46;928.33;;;866.45;;
59474;SDS011;45288;51.136;16.928;2023-05-27T01:38:14;910.13;;;850.00;;
59474;SDS011;45288;51.136;16.928;2023-05-27T01:40:41;947.40;;;885.47;;
59474;SDS011;45288;51.136;16.928;2023-05-27T01:43:08;951.17;;;887.95;;
59474;SDS011;45288;51.136;16.928;2023-05-27T01:45:36;908.13;;;847.77;;
59474;SDS011;45288;51.136;16.928;2023-05-27T01:48:02;872.75;;;814.92;;
59474;SDS011;45288;51.136;16.928;2023-05-27T01:50:28;873.33;;;814.67;;
59474;SDS011;45288;51.136;16.928;2023-05-27T01:52:56;860.53;;;803.42;;
59474;SDS011;45288;51.136;16.928;2023-05-27T01:55:22;851.10;;;794.70;;
59474;SDS011;45288;51.136;16.928;2023-05-27T01:57:48;862.30;;;804.95;;
59474;SDS011;45288;51.136;16.928;2023-05-27T02:00:15;878.67;;;820.72;;
59474;SDS011;45288;51.136;16.928;2023-05-27T02:02:43;892.97;;;834.43;;
59474;SDS011;45288;51.136;16.928;2023-05-27T02:05:12;887.67;;;829.42;;
59474;SDS011;45288;51.136;16.928;2023-05-27T02:07:46;896.15;;;836.60;;
59474;SDS011;45288;51.136;16.928;2023-05-27T02:10:13;902.17;;;842.20;;
59474;SDS011;45288;51.136;16.928;2023-05-27T02:12:51;888.08;;;829.53;;
59474;SDS011;45288;51.136;16.928;2023-05-27T02:15:18;890.67;;;831.65;;
59474;SDS011;45288;51.136;16.928;2023-05-27T02:17:57;872.35;;;814.78;;
59474;SDS011;45288;51.136;16.928;2023-05-27T02:20:24;867.55;;;809.47;;
59474;SDS011;45288;51.136;16.928;2023-05-27T02:23:06;871.40;;;812.78;;
59474;SDS011;45288;51.136;16.928;2023-05-27T02:25:32;853.20;;;796.17;;
59474;SDS011;45288;51.136;16.928;2023-05-27T02:27:58;865.47;;;807.63;;
59474;SDS011;45288;51.136;16.928;2023-05-27T02:30:29;862.57;;;804.70;;
59474;SDS011;45288;51.136;16.928;2023-05-27T02:32:55;688.15;;;640.90;;
59474;SDS011;45288;51.136;16.928;2023-05-27T02:35:21;651.88;;;606.72;;
59474;SDS011;45288;51.136;16.928;2023-05-27T02:37:46;868.07;;;810.53;;
59474;SDS011;45288;51.136;16.928;2023-05-27T02:40:24;875.08;;;816.05;;
59474;SDS011;45288;51.136;16.928;2023-05-27T02:42:50;872.33;;;814.63;;
59474;SDS011;45288;51.136;16.928;2023-05-27T02:45:16;861.50;;;804.70;;
59474;SDS011;45288;51.136;16.928;2023-05-27T02:47:42;863.30;;;806.72;;
59474;SDS011;45288;51.136;16.928;2023-05-27T02:50:08;862.10;;;804.87;;
59474;SDS011;45288;51.136;16.928;2023-05-27T02:52:34;871.30;;;814.15;;
59474;SDS011;45288;51.136;16.928;2023-05-27T02:55:00;877.22;;;819.53;;
59474;SDS011;45288;51.136;16.928;2023-05-27T02:57:38;870.33;;;812.85;;
59474;SDS011;45288;51.136;16.928;2023-05-27T03:00:04;865.42;;;807.67;;
59474;SDS011;45288;51.136;16.928;2023-05-27T03:02:42;864.72;;;807.60;;
59474;SDS011;45288;51.136;16.928;2023-05-27T03:05:08;861.20;;;804.03;;
59474;SDS011;45288;51.136;16.928;2023-05-27T03:07:33;857.33;;;801.05;;
59474;SDS011;45288;51.136;16.928;2023-05-27T03:10:00;869.72;;;812.40;;
59474;SDS011;45288;51.136;16.928;2023-05-27T03:12:33;834.72;;;779.40;;
59474;SDS011;45288;51.136;16.928;2023-05-27T03:14:59;802.40;;;748.97;;
59474;SDS011;45288;51.136;16.928;2023-05-27T03:17:28;832.00;;;776.70;;
59474;SDS011;45288;51.136;16.928;2023-05-27T03:19:54;829.58;;;775.33;;
59474;SDS011;45288;51.136;16.928;2023-05-27T03:22:20;843.90;;;787.95;;
59474;SDS011;45288;51.136;16.928;2023-05-27T03:24:47;843.38;;;788.30;;
59474;SDS011;45288;51.136;16.928;2023-05-27T03:27:13;857.35;;;800.85;;
59474;SDS011;45288;51.136;16.928;2023-05-27T03:29:42;866.42;;;809.92;;
59474;SDS011;45288;51.136;16.928;2023-05-27T03:32:08;874.55;;;817.35;;
59474;SDS011;45288;51.136;16.928;2023-05-27T03:34:35;866.58;;;809.63;;
59474;SDS011;45288;51.136;16.928;2023-05-27T03:37:01;870.50;;;813.63;;
59474;SDS011;45288;51.136;16.928;2023-05-27T03:39:43;861.80;;;805.22;;
59474;SDS011;45288;51.136;16.928;2023-05-27T03:42:09;849.58;;;793.70;;
59474;SDS011;45288;51.136;16.928;2023-05-27T03:44:35;854.10;;;797.90;;
59474;SDS011;45288;51.136;16.928;2023-05-27T03:47:02;884.53;;;826.55;;
59474;SDS011;45288;51.136;16.928;2023-05-27T03:49:27;920.15;;;859.78;;
59474;SDS011;45288;51.136;16.928;2023-05-27T03:51:53;903.00;;;844.23;;
59474;SDS011;45288;51.136;16.928;2023-05-27T03:54:19;904.93;;;845.77;;
59474;SDS011;45288;51.136;16.928;2023-05-27T03:56:46;912.55;;;853.53;;
59474;SDS011;45288;51.136;16.928;2023-05-27T03:59:12;904.22;;;845.00;;
59474;SDS011;45288;51.136;16.928;2023-05-27T04:01:39;921.55;;;861.05;;
59474;SDS011;45288;51.136;16.928;2023-05-27T04:04:05;898.60;;;839.83;;
59474;SDS011;45288;51.136;16.928;2023-05-27T04:06:31;900.13;;;841.00;;
59474;SDS011;45288;51.136;16.928;2023-05-27T04:08:59;921.55;;;861.90;;
59474;SDS011;45288;51.136;16.928;2023-05-27T04:11:26;919.13;;;859.63;;
59474;SDS011;45288;51.136;16.928;2023-05-27T04:13:52;888.95;;;830.63;;
59474;SDS011;45288;51.136;16.928;2023-05-27T04:16:18;909.08;;;849.42;;
59474;SDS011;45288;51.136;16.928;2023-05-27T04:18:44;914.90;;;855.50;;
59474;SDS011;45288;51.136;16.928;2023-05-27T04:21:14;909.88;;;850.30;;
59474;SDS011;45288;51.136;16.928;2023-05-27T04:23:41;907.85;;;849.30;;
59474;SDS011;45288;51.136;16.928;2023-05-27T04:26:07;908.78;;;849.65;;
59474;SDS011;45288;51.136;16.928;2023-05-27T04:28:37;899.13;;;840.50;;
59474;SDS011;45288;51.136;16.928;2023-05-27T04:31:05;906.50;;;847.15;;
59474;SDS011;45288;51.136;16.928;2023-05-27T04:33:40;894.13;;;835.92;;
59474;SDS011;45288;51.136;16.928;2023-05-27T04:36:06;895.78;;;836.95;;
59474;SDS011;45288;51.136;16.928;2023-05-27T04:38:42;889.45;;;831.15;;
59474;SDS011;45288;51.136;16.928;2023-05-27T04:41:11;882.67;;;825.22;;
59474;SDS011;45288;51.136;16.928;2023-05-27T04:43:57;896.07;;;837.87;;
59474;SDS011;45288;51.136;16.928;2023-05-27T04:46:29;879.85;;;822.88;;
59474;SDS011;45288;51.136;16.928;2023-05-27T04:48:56;890.30;;;832.35;;
59474;SDS011;45288;51.136;16.928;2023-05-27T04:51:21;904.50;;;845.73;;
59474;SDS011;45288;51.136;16.928;2023-05-27T04:53:49;909.90;;;851.05;;
59474;SDS011;45288;51.136;16.928;2023-05-27T04:56:17;966.13;;;901.33;;
59474;SDS011;45288;51.136;16.928;2023-05-27T04:58:44;971.67;;;906.53;;
59474;SDS011;45288;51.136;16.928;2023-05-27T05:01:13;959.65;;;892.17;;
59474;SDS011;45288;51.136;16.928;2023-05-27T05:03:48;975.27;;;902.90;;
59474;SDS011;45288;51.136;16.928;2023-05-27T05:06:32;969.70;;;901.30;;
59474;SDS011;45288;51.136;16.928;2023-05-27T05:08:59;967.88;;;900.63;;
59474;SDS011;45288;51.136;16.928;2023-05-27T05:11:27;970.83;;;903.13;;
59474;SDS011;45288;51.136;16.928;2023-05-27T05:13:53;964.70;;;900.20;;
59474;SDS011;45288;51.136;16.928;2023-05-27T05:16:19;973.72;;;907.60;;
59474;SDS011;45288;51.136;16.928;2023-05-27T05:18:45;964.17;;;899.53;;
59474;SDS011;45288;51.136;16.928;2023-05-27T05:21:12;963.65;;;899.42;;
59474;SDS011;45288;51.136;16.928;2023-05-27T05:23:40;965.92;;;901.50;;
59474;SDS011;45288;51.136;16.928;2023-05-27T05:26:07;977.13;;;907.60;;
59474;SDS011;45288;51.136;16.928;2023-05-27T05:28:38;973.90;;;898.15;;
59474;SDS011;45288;51.136;16.928;2023-05-27T05:31:05;974.78;;;901.60;;
59474;SDS011;45288;51.136;16.928;2023-05-27T05:33:30;981.72;;;907.22;;
59474;SDS011;45288;51.136;16.928;2023-05-27T05:35:57;990.45;;;917.17;;
59474;SDS011;45288;51.136;16.928;2023-05-27T05:38:31;999.25;;;922.45;;
59474;SDS011;45288;51.136;16.928;2023-05-27T05:40:57;991.40;;;920.50;;
59474;SDS011;45288;51.136;16.928;2023-05-27T05:43:23;1007.37;;;933.07;;
59474;SDS011;45288;51.136;16.928;2023-05-27T05:45:50;1015.13;;;940.77;;
59474;SDS011;45288;51.136;16.928;2023-05-27T05:48:18;1018.92;;;946.50;;
59474;SDS011;45288;51.136;16.928;2023-05-27T05:50:44;1026.78;;;955.78;;
59474;SDS011;45288;51.136;16.928;2023-05-27T05:53:10;1006.90;;;940.05;;
59474;SDS011;45288;51.136;16.928;2023-05-27T05:55:36;999.33;;;933.53;;
59474;SDS011;45288;51.136;16.928;2023-05-27T05:58:01;1026.23;;;958.43;;
59474;SDS011;45288;51.136;16.928;2023-05-27T06:00:29;1038.75;;;968.75;;
59474;SDS011;45288;51.136;16.928;2023-05-27T06:03:11;1031.90;;;963.35;;
59474;SDS011;45288;51.136;16.928;2023-05-27T06:05:50;1026.93;;;959.42;;
59474;SDS011;45288;51.136;16.928;2023-05-27T06:08:16;1033.78;;;964.63;;
59474;SDS011;45288;51.136;16.928;2023-05-27T06:10:49;1024.35;;;956.20;;
59474;SDS011;45288;51.136;16.928;2023-05-27T06:13:16;1040.80;;;970.93;;
59474;SDS011;45288;51.136;16.928;2023-05-27T06:15:42;1053.35;;;981.70;;
59474;SDS011;45288;51.136;16.928;2023-05-27T06:18:10;1052.43;;;980.00;;
59474;SDS011;45288;51.136;16.928;2023-05-27T06:20:36;1036.10;;;967.47;;
59474;SDS011;45288;51.136;16.928;2023-05-27T06:23:02;1050.38;;;980.45;;
59474;SDS011;45288;51.136;16.928;2023-05-27T06:25:43;1024.68;;;956.78;;
59474;SDS011;45288;51.136;16.928;2023-05-27T06:28:09;997.22;;;931.38;;
59474;SDS011;45288;51.136;16.928;2023-05-27T06:30:36;994.67;;;928.47;;
59474;SDS011;45288;51.136;16.928;2023-05-27T06:33:05;950.70;;;887.20;;
59474;SDS011;45288;51.136;16.928;2023-05-27T06:35:32;939.80;;;876.80;;
59474;SDS011;45288;51.136;16.928;2023-05-27T06:37:58;916.00;;;855.27;;
59474;SDS011;45288;51.136;16.928;2023-05-27T06:40:24;927.05;;;864.80;;
59474;SDS011;45288;51.136;16.928;2023-05-27T06:42:52;912.17;;;851.30;;
59474;SDS011;45288;51.136;16.928;2023-05-27T06:45:29;916.03;;;854.10;;
59474;SDS011;45288;51.136;16.928;2023-05-27T06:48:08;913.85;;;852.20;;
59474;SDS011;45288;51.136;16.928;2023-05-27T06:50:34;917.17;;;854.87;;
59474;SDS011;45288;51.136;16.928;2023-05-27T06:52:59;917.20;;;855.53;;
59474;SDS011;45288;51.136;16.928;2023-05-27T06:55:56;924.37;;;861.63;;
59474;SDS011;45288;51.136;16.928;2023-05-27T06:58:45;904.00;;;842.97;;
59474;SDS011;45288;51.136;16.928;2023-05-27T07:01:15;838.45;;;780.50;;
59474;SDS011;45288;51.136;16.928;2023-05-27T07:03:46;890.20;;;829.45;;
59474;SDS011;45288;51.136;16.928;2023-05-27T07:06:17;891.63;;;830.47;;
59474;SDS011;45288;51.136;16.928;2023-05-27T07:08:47;838.83;;;780.57;;
59474;SDS011;45288;51.136;16.928;2023-05-27T07:11:33;912.45;;;850.13;;
59474;SDS011;45288;51.136;16.928;2023-05-27T07:14:03;910.43;;;847.63;;
59474;SDS011;45288;51.136;16.928;2023-05-27T07:16:32;869.03;;;808.97;;
59474;SDS011;45288;51.136;16.928;2023-05-27T07:18:58;857.45;;;797.80;;
59474;SDS011;45288;51.136;16.928;2023-05-27T07:21:26;830.67;;;772.95;;
59474;SDS011;45288;51.136;16.928;2023-05-27T07:23:54;823.78;;;766.28;;
59474;SDS011;45288;51.136;16.928;2023-05-27T07:26:29;825.05;;;767.08;;
59474;SDS011;45288;51.136;16.928;2023-05-27T07:28:56;839.92;;;780.90;;
59474;SDS011;45288;51.136;16.928;2023-05-27T07:31:32;813.90;;;756.13;;
59474;SDS011;45288;51.136;16.928;2023-05-27T07:34:04;808.22;;;750.92;;
59474;SDS011;45288;51.136;16.928;2023-05-27T07:36:30;806.53;;;748.93;;
59474;SDS011;45288;51.136;16.928;2023-05-27T07:38:57;795.42;;;738.38;;
59474;SDS011;45288;51.136;16.928;2023-05-27T07:41:22;798.60;;;741.50;;
59474;SDS011;45288;51.136;16.928;2023-05-27T07:43:49;787.55;;;731.30;;
59474;SDS011;45288;51.136;16.928;2023-05-27T07:46:15;793.43;;;736.07;;
59474;SDS011;45288;51.136;16.928;2023-05-27T07:48:41;777.80;;;721.80;;
59474;SDS011;45288;51.136;16.928;2023-05-27T07:51:08;786.45;;;730.13;;
59474;SDS011;45288;51.136;16.928;2023-05-27T07:53:35;790.72;;;733.67;;
59474;SDS011;45288;51.136;16.928;2023-05-27T07:56:01;773.70;;;717.80;;
59474;SDS011;45288;51.136;16.928;2023-05-27T07:58:26;773.30;;;717.60;;
59474;SDS011;45288;51.136;16.928;2023-05-27T08:01:09;775.70;;;720.25;;
59474;SDS011;45288;51.136;16.928;2023-05-27T08:03:35;781.17;;;725.20;;
59474;SDS011;45288;51.136;16.928;2023-05-27T08:06:18;775.88;;;719.17;;
59474;SDS011;45288;51.136;16.928;2023-05-27T08:09:02;770.63;;;715.05;;
59474;SDS011;45288;51.136;16.928;2023-05-27T08:11:32;770.87;;;715.17;;
59474;SDS011;45288;51.136;16.928;2023-05-27T08:14:05;762.35;;;707.25;;
59474;SDS011;45288;51.136;16.928;2023-05-27T08:16:42;767.90;;;711.77;;
59474;SDS011;45288;51.136;16.928;2023-05-27T08:19:27;765.88;;;710.35;;
59474;SDS011;45288;51.136;16.928;2023-05-27T08:22:05;756.92;;;701.60;;
59474;SDS011;45288;51.136;16.928;2023-05-27T08:24:51;749.72;;;694.53;;
59474;SDS011;45288;51.136;16.928;2023-05-27T08:28:09;762.10;;;706.72;;
59474;SDS011;45288;51.136;16.928;2023-05-27T08:30:41;787.13;;;729.83;;
59474;SDS011;45288;51.136;16.928;2023-05-27T08:33:30;794.83;;;737.00;;
59474;SDS011;45288;51.136;16.928;2023-05-27T08:35:56;795.53;;;738.17;;
59474;SDS011;45288;51.136;16.928;2023-05-27T08:38:22;796.00;;;737.57;;
59474;SDS011;45288;51.136;16.928;2023-05-27T08:40:51;774.28;;;717.38;;
59474;SDS011;45288;51.136;16.928;2023-05-27T08:43:18;779.80;;;722.60;;
59474;SDS011;45288;51.136;16.928;2023-05-27T08:45:44;769.15;;;713.25;;
59474;SDS011;45288;51.136;16.928;2023-05-27T08:48:11;756.85;;;701.33;;
59474;SDS011;45288;51.136;16.928;2023-05-27T08:50:38;757.40;;;701.15;;
59474;SDS011;45288;51.136;16.928;2023-05-27T08:53:04;761.50;;;705.58;;
59474;SDS011;45288;51.136;16.928;2023-05-27T08:55:32;745.92;;;690.88;;
59474;SDS011;45288;51.136;16.928;2023-05-27T08:57:58;751.17;;;696.08;;
59474;SDS011;45288;51.136;16.928;2023-05-27T09:00:26;752.45;;;697.20;;
59474;SDS011;45288;51.136;16.928;2023-05-27T09:02:56;753.97;;;698.33;;
59474;SDS011;45288;51.136;16.928;2023-05-27T09:05:28;757.85;;;701.40;;
59474;SDS011;45288;51.136;16.928;2023-05-27T09:07:54;744.58;;;689.42;;
59474;SDS011;45288;51.136;16.928;2023-05-27T09:10:20;761.20;;;704.47;;
59474;SDS011;45288;51.136;16.928;2023-05-27T09:12:46;752.30;;;697.07;;
59474;SDS011;45288;51.136;16.928;2023-05-27T09:15:12;760.07;;;704.13;;
59474;SDS011;45288;51.136;16.928;2023-05-27T09:17:41;760.20;;;703.20;;
59474;SDS011;45288;51.136;16.928;2023-05-27T09:20:09;761.88;;;705.28;;
59474;SDS011;45288;51.136;16.928;2023-05-27T09:22:36;755.23;;;699.10;;
59474;SDS011;45288;51.136;16.928;2023-05-27T09:25:02;759.55;;;703.13;;
59474;SDS011;45288;51.136;16.928;2023-05-27T09:27:29;756.07;;;700.03;;
59474;SDS011;45288;51.136;16.928;2023-05-27T09:29:55;748.37;;;693.47;;
59474;SDS011;45288;51.136;16.928;2023-05-27T09:32:24;754.47;;;698.47;;
59474;SDS011;45288;51.136;16.928;2023-05-27T09:34:50;758.50;;;702.67;;
59474;SDS011;45288;51.136;16.928;2023-05-27T09:37:17;748.88;;;693.25;;
59474;SDS011;45288;51.136;16.928;2023-05-27T09:39:46;749.10;;;693.60;;
59474;SDS011;45288;51.136;16.928;2023-05-27T09:42:14;752.03;;;696.42;;
59474;SDS011;45288;51.136;16.928;2023-05-27T09:44:48;744.42;;;690.08;;
59474;SDS011;45288;51.136;16.928;2023-05-27T09:47:15;743.47;;;688.60;;
59474;SDS011;45288;51.136;16.928;2023-05-27T09:49:42;698.90;;;647.15;;
59474;SDS011;45288;51.136;16.928;2023-05-27T09:52:09;767.88;;;711.55;;
59474;SDS011;45288;51.136;16.928;2023-05-27T09:54:36;788.40;;;730.60;;
59474;SDS011;45288;51.136;16.928;2023-05-27T09:57:05;768.47;;;711.92;;
59474;SDS011;45288;51.136;16.928;2023-05-27T09:59:35;767.00;;;709.95;;
59474;SDS011;45288;51.136;16.928;2023-05-27T10:02:00;787.67;;;729.60;;
59474;SDS011;45288;51.136;16.928;2023-05-27T10:04:34;773.13;;;715.50;;
59474;SDS011;45288;51.136;16.928;2023-05-27T10:07:14;768.30;;;711.22;;
59474;SDS011;45288;51.136;16.928;2023-05-27T10:09:42;770.20;;;712.43;;
59474;SDS011;45288;51.136;16.928;2023-05-27T10:12:07;766.25;;;708.90;;
59474;SDS011;45288;51.136;16.928;2023-05-27T10:14:41;766.22;;;707.88;;
59474;SDS011;45288;51.136;16.928;2023-05-27T10:17:09;762.30;;;705.30;;
59474;SDS011;45288;51.136;16.928;2023-05-27T10:19:55;752.47;;;695.47;;
59474;SDS011;45288;51.136;16.928;2023-05-27T10:22:22;757.53;;;700.30;;
59474;SDS011;45288;51.136;16.928;2023-05-27T10:25:06;754.65;;;697.65;;
59474;SDS011;45288;51.136;16.928;2023-05-27T10:27:47;740.25;;;684.05;;
59474;SDS011;45288;51.136;16.928;2023-05-27T10:30:14;758.80;;;700.97;;
59474;SDS011;45288;51.136;16.928;2023-05-27T10:32:49;557.13;;;513.42;;
59474;SDS011;45288;51.136;16.928;2023-05-27T10:35:18;735.58;;;680.20;;
59474;SDS011;45288;51.136;16.928;2023-05-27T10:37:44;743.90;;;687.47;;
59474;SDS011;45288;51.136;16.928;2023-05-27T10:40:11;749.30;;;692.92;;
59474;SDS011;45288;51.136;16.928;2023-05-27T10:42:37;750.07;;;693.27;;
59474;SDS011;45288;51.136;16.928;2023-05-27T10:45:03;720.92;;;666.08;;
59474;SDS011;45288;51.136;16.928;2023-05-27T10:47:29;744.78;;;687.60;;
59474;SDS011;45288;51.136;16.928;2023-05-27T10:49:56;702.70;;;648.60;;
59474;SDS011;45288;51.136;16.928;2023-05-27T10:52:23;697.35;;;643.78;;
59474;SDS011;45288;51.136;16.928;2023-05-27T10:54:50;731.47;;;675.80;;
59474;SDS011;45288;51.136;16.928;2023-05-27T10:57:17;746.13;;;689.27;;
59474;SDS011;45288;51.136;16.928;2023-05-27T10:59:51;753.40;;;696.33;;
59474;SDS011;45288;51.136;16.928;2023-05-27T11:02:20;762.33;;;703.97;;
59474;SDS011;45288;51.136;16.928;2023-05-27T11:04:46;750.15;;;693.08;;
59474;SDS011;45288;51.136;16.928;2023-05-27T11:07:12;731.65;;;676.15;;
59474;SDS011;45288;51.136;16.928;2023-05-27T11:09:50;741.58;;;685.00;;
59474;SDS011;45288;51.136;16.928;2023-05-27T11:12:17;734.35;;;678.60;;
59474;SDS011;45288;51.136;16.928;2023-05-27T11:14:44;733.28;;;677.35;;
59474;SDS011;45288;51.136;16.928;2023-05-27T11:17:17;721.17;;;665.97;;
59474;SDS011;45288;51.136;16.928;2023-05-27T11:19:44;711.65;;;656.60;;
59474;SDS011;45288;51.136;16.928;2023-05-27T11:22:11;672.63;;;620.60;;
59474;SDS011;45288;51.136;16.928;2023-05-27T11:24:37;679.28;;;626.17;;
59474;SDS011;45288;51.136;16.928;2023-05-27T11:27:10;684.57;;;632.00;;
59474;SDS011;45288;51.136;16.928;2023-05-27T11:29:36;664.58;;;613.03;;
59474;SDS011;45288;51.136;16.928;2023-05-27T11:32:02;656.20;;;605.55;;
59474;SDS011;45288;51.136;16.928;2023-05-27T11:34:28;669.23;;;616.97;;
59474;SDS011;45288;51.136;16.928;2023-05-27T11:36:54;640.10;;;590.67;;
59474;SDS011;45288;51.136;16.928;2023-05-27T11:39:21;671.55;;;619.28;;
59474;SDS011;45288;51.136;16.928;2023-05-27T11:41:48;665.13;;;613.58;;
59474;SDS011;45288;51.136;16.928;2023-05-27T11:44:15;661.63;;;610.58;;
59474;SDS011;45288;51.136;16.928;2023-05-27T11:46:41;668.38;;;616.83;;
59474;SDS011;45288;51.136;16.928;2023-05-27T11:49:08;674.00;;;621.88;;
59474;SDS011;45288;51.136;16.928;2023-05-27T11:51:34;680.17;;;627.17;;
59474;SDS011;45288;51.136;16.928;2023-05-27T11:54:02;678.28;;;626.00;;
59474;SDS011;45288;51.136;16.928;2023-05-27T11:56:28;681.90;;;628.05;;
59474;SDS011;45288;51.136;16.928;2023-05-27T11:58:54;683.55;;;629.67;;
59474;SDS011;45288;51.136;16.928;2023-05-27T12:01:20;681.15;;;627.88;;
59474;SDS011;45288;51.136;16.928;2023-05-27T12:03:46;666.05;;;613.55;;
59474;SDS011;45288;51.136;16.928;2023-05-27T12:06:12;647.75;;;597.22;;
59474;SDS011;45288;51.136;16.928;2023-05-27T12:08:37;639.67;;;588.97;;
59474;SDS011;45288;51.136;16.928;2023-05-27T12:11:04;639.15;;;589.22;;
59474;SDS011;45288;51.136;16.928;2023-05-27T12:13:30;633.38;;;584.03;;
59474;SDS011;45288;51.136;16.928;2023-05-27T12:15:57;634.85;;;585.97;;
59474;SDS011;45288;51.136;16.928;2023-05-27T12:18:22;649.97;;;599.80;;
59474;SDS011;45288;51.136;16.928;2023-05-27T12:20:48;641.40;;;591.70;;
59474;SDS011;45288;51.136;16.928;2023-05-27T12:23:14;647.50;;;596.80;;
59474;SDS011;45288;51.136;16.928;2023-05-27T12:25:40;630.17;;;580.63;;
59474;SDS011;45288;51.136;16.928;2023-05-27T12:28:07;633.90;;;584.47;;
59474;SDS011;45288;51.136;16.928;2023-05-27T12:30:33;620.90;;;572.65;;
59474;SDS011;45288;51.136;16.928;2023-05-27T12:32:59;613.60;;;565.65;;
59474;SDS011;45288;51.136;16.928;2023-05-27T12:35:24;622.67;;;573.80;;
59474;SDS011;45288;51.136;16.928;2023-05-27T12:37:50;613.75;;;566.10;;
59474;SDS011;45288;51.136;16.928;2023-05-27T12:40:17;605.13;;;558.40;;
59474;SDS011;45288;51.136;16.928;2023-05-27T12:42:43;609.53;;;562.20;;
59474;SDS011;45288;51.136;16.928;2023-05-27T12:45:09;602.15;;;555.22;;
59474;SDS011;45288;51.136;16.928;2023-05-27T12:47:35;618.00;;;569.38;;
59474;SDS011;45288;51.136;16.928;2023-05-27T12:50:01;616.40;;;569.17;;
59474;SDS011;45288;51.136;16.928;2023-05-27T12:52:27;612.22;;;564.25;;
59474;SDS011;45288;51.136;16.928;2023-05-27T12:54:53;619.63;;;570.77;;
59474;SDS011;45288;51.136;16.928;2023-05-27T12:57:19;627.38;;;577.72;;
59474;SDS011;45288;51.136;16.928;2023-05-27T12:59:45;627.43;;;578.23;;
59474;SDS011;45288;51.136;16.928;2023-05-27T13:02:11;636.53;;;586.70;;
59474;SDS011;45288;51.136;16.928;2023-05-27T13:04:37;625.83;;;576.00;;
59474;SDS011;45288;51.136;16.928;2023-05-27T13:07:03;621.20;;;572.33;;
59474;SDS011;45288;51.136;16.928;2023-05-27T13:09:28;620.45;;;571.70;;
59474;SDS011;45288;51.136;16.928;2023-05-27T13:11:56;628.55;;;578.92;;
59474;SDS011;45288;51.136;16.928;2023-05-27T13:14:28;616.63;;;568.20;;
59474;SDS011;45288;51.136;16.928;2023-05-27T13:17:05;606.20;;;558.95;;
59474;SDS011;45288;51.136;16.928;2023-05-27T13:19:31;609.50;;;561.83;;
59474;SDS011;45288;51.136;16.928;2023-05-27T13:21:57;611.60;;;563.83;;
59474;SDS011;45288;51.136;16.928;2023-05-27T13:24:39;619.03;;;570.45;;
59474;SDS011;45288;51.136;16.928;2023-05-27T13:27:04;613.23;;;565.03;;
59474;SDS011;45288;51.136;16.928;2023-05-27T13:29:34;608.97;;;561.47;;
59474;SDS011;45288;51.136;16.928;2023-05-27T13:32:05;618.40;;;569.80;;
59474;SDS011;45288;51.136;16.928;2023-05-27T13:34:44;616.63;;;568.20;;
59474;SDS011;45288;51.136;16.928;2023-05-27T13:37:16;614.95;;;567.03;;
59474;SDS011;45288;51.136;16.928;2023-05-27T13:39:52;632.53;;;582.33;;
59474;SDS011;45288;51.136;16.928;2023-05-27T13:42:17;641.27;;;590.70;;
59474;SDS011;45288;51.136;16.928;2023-05-27T13:44:43;634.00;;;583.75;;
59474;SDS011;45288;51.136;16.928;2023-05-27T13:47:15;623.67;;;575.17;;
59474;SDS011;45288;51.136;16.928;2023-05-27T13:49:50;640.15;;;589.92;;
59474;SDS011;45288;51.136;16.928;2023-05-27T13:52:15;645.43;;;594.60;;
59474;SDS011;45288;51.136;16.928;2023-05-27T13:54:42;642.13;;;591.67;;
59474;SDS011;45288;51.136;16.928;2023-05-27T13:57:31;646.97;;;595.80;;